sensor_id;sensor_type;location;lat;lon;timestamp;P1;durP1;ratioP1;P2;durP2;ratioP2
53939;SDS011;39850;43.324;21.916;2022-09-09T00:24:52;11.0;;;10.0;;
53939;SDS011;39850;43.324;21.916;2022-09-09T00:29:45;11.0;;;10.0;;
53939;SDS011;39850;43.324;21.916;2022-09-09T00:34:30;11.0;;;10.0;;
53939;SDS011;39850;43.324;21.916;2022-09-09T00:39:36;11.0;;;10.0;;
53939;SDS011;39850;43.324;21.916;2022-09-09T00:44:33;11.0;;;10.0;;
53939;SDS011;39850;43.324;21.916;2022-09-09T00:49:43;11.0;;;10.0;;
53939;SDS011;39850;43.324;21.916;2022-09-09T00:55:03;10.0;;;10.0;;
53939;SDS011;39850;43.324;21.916;2022-09-09T01:00:19;10.0;;;10.0;;
53939;SDS011;39850;43.324;21.916;2022-09-09T01:05:19;10.0;;;10.0;;
53939;SDS011;39850;43.324;21.916;2022-09-09T01:10:43;10.0;;;10.0;;
53939;SDS011;39850;43.324;21.916;2022-09-09T01:45:53;10.0;;;10.0;;
53939;SDS011;39850;43.324;21.916;2022-09-09T01:50:32;10.0;;;10.0;;
53939;SDS011;39850;43.324;21.916;2022-09-09T01:55:13;10.0;;;10.0;;
53939;SDS011;39850;43.324;21.916;2022-09-09T02:00:12;10.0;;;10.0;;
53939;SDS011;39850;43.324;21.916;2022-09-09T02:05:36;10.0;;;10.0;;
53939;SDS011;39850;43.324;21.916;2022-09-09T02:10:47;10.0;;;10.0;;
53939;SDS011;39850;43.324;21.916;2022-09-09T02:16:01;10.0;;;10.0;;
53939;SDS011;39850;43.324;21.916;2022-09-09T02:20:56;10.0;;;10.0;;
53939;SDS011;39850;43.324;21.916;2022-09-09T02:25:41;11.0;;;9.0;;
53939;SDS011;39850;43.324;21.916;2022-09-09T02:30:23;11.0;;;9.0;;
53939;SDS011;39850;43.324;21.916;2022-09-09T03:04:48;11.0;;;10.0;;
53939;SDS011;39850;43.324;21.916;2022-09-09T03:09:25;11.0;;;10.0;;
53939;SDS011;39850;43.324;21.916;2022-09-09T03:14:02;11.0;;;10.0;;
53939;SDS011;39850;43.324;21.916;2022-09-09T03:18:39;11.0;;;10.0;;
53939;SDS011;39850;43.324;21.916;2022-09-09T03:23:16;11.0;;;10.0;;
53939;SDS011;39850;43.324;21.916;2022-09-09T03:27:56;11.0;;;10.0;;
53939;SDS011;39850;43.324;21.916;2022-09-09T03:32:33;11.0;;;10.0;;
53939;SDS011;39850;43.324;21.916;2022-09-09T03:37:10;11.0;;;10.0;;
53939;SDS011;39850;43.324;21.916;2022-09-09T03:41:47;11.0;;;10.0;;
53939;SDS011;39850;43.324;21.916;2022-09-09T03:46:26;11.0;;;10.0;;
53939;SDS011;39850;43.324;21.916;2022-09-09T03:51:03;11.0;;;10.0;;
53939;SDS011;39850;43.324;21.916;2022-09-09T04:28:05;11.0;;;10.0;;
53939;SDS011;39850;43.324;21.916;2022-09-09T04:32:42;11.0;;;10.0;;
53939;SDS011;39850;43.324;21.916;2022-09-09T04:37:19;11.0;;;10.0;;
53939;SDS011;39850;43.324;21.916;2022-09-09T04:41:57;11.0;;;10.0;;
53939;SDS011;39850;43.324;21.916;2022-09-09T04:46:34;11.0;;;10.0;;
53939;SDS011;39850;43.324;21.916;2022-09-09T04:51:15;11.0;;;10.0;;
53939;SDS011;39850;43.324;21.916;2022-09-09T04:56:05;11.0;;;10.0;;
53939;SDS011;39850;43.324;21.916;2022-09-09T05:00:48;11.0;;;10.0;;
53939;SDS011;39850;43.324;21.916;2022-09-09T05:05:25;11.0;;;10.0;;
53939;SDS011;39850;43.324;21.916;2022-09-09T05:10:04;11.0;;;10.0;;
53939;SDS011;39850;43.324;21.916;2022-09-09T05:14:43;11.0;;;10.0;;
53939;SDS011;39850;43.324;21.916;2022-09-09T05:47:08;11.0;;;10.0;;
53939;SDS011;39850;43.324;21.916;2022-09-09T05:51:44;11.0;;;10.0;;
53939;SDS011;39850;43.324;21.916;2022-09-09T05:56:28;12.0;;;10.0;;
53939;SDS011;39850;43.324;21.916;2022-09-09T06:01:13;12.0;;;10.0;;
53939;SDS011;39850;43.324;21.916;2022-09-09T06:06:02;11.0;;;10.0;;
53939;SDS011;39850;43.324;21.916;2022-09-09T06:10:41;11.0;;;10.0;;
53939;SDS011;39850;43.324;21.916;2022-09-09T06:15:17;12.0;;;10.0;;
53939;SDS011;39850;43.324;21.916;2022-09-09T06:19:54;12.0;;;10.0;;
53939;SDS011;39850;43.324;21.916;2022-09-09T06:24:30;12.0;;;10.0;;
53939;SDS011;39850;43.324;21.916;2022-09-09T06:29:10;11.0;;;10.0;;
53939;SDS011;39850;43.324;21.916;2022-09-09T06:33:51;11.0;;;10.0;;
53939;SDS011;39850;43.324;21.916;2022-09-09T07:06:28;15.0;;;13.0;;
53939;SDS011;39850;43.324;21.916;2022-09-09T07:11:10;15.0;;;13.0;;
53939;SDS011;39850;43.324;21.916;2022-09-09T07:15:47;16.0;;;14.0;;
53939;SDS011;39850;43.324;21.916;2022-09-09T07:20:24;16.0;;;14.0;;
53939;SDS011;39850;43.324;21.916;2022-09-09T07:25:02;16.0;;;14.0;;
53939;SDS011;39850;43.324;21.916;2022-09-09T07:29:42;18.0;;;15.0;;
53939;SDS011;39850;43.324;21.916;2022-09-09T07:34:19;18.0;;;15.0;;
53939;SDS011;39850;43.324;21.916;2022-09-09T07:39:05;18.0;;;15.0;;
53939;SDS011;39850;43.324;21.916;2022-09-09T07:43:53;18.0;;;15.0;;
53939;SDS011;39850;43.324;21.916;2022-09-09T07:48:31;18.0;;;15.0;;
53939;SDS011;39850;43.324;21.916;2022-09-09T07:53:09;18.0;;;15.0;;
53939;SDS011;39850;43.324;21.916;2022-09-09T08:50:26;13.0;;;12.0;;
53939;SDS011;39850;43.324;21.916;2022-09-09T08:55:40;13.0;;;12.0;;
53939;SDS011;39850;43.324;21.916;2022-09-09T09:00:28;13.0;;;12.0;;
53939;SDS011;39850;43.324;21.916;2022-09-09T09:05:42;13.0;;;12.0;;
53939;SDS011;39850;43.324;21.916;2022-09-09T09:10:50;13.0;;;12.0;;
53939;SDS011;39850;43.324;21.916;2022-09-09T09:15:42;13.0;;;12.0;;
53939;SDS011;39850;43.324;21.916;2022-09-09T09:49:23;12.0;;;11.0;;
53939;SDS011;39850;43.324;21.916;2022-09-09T09:54:38;12.0;;;11.0;;
53939;SDS011;39850;43.324;21.916;2022-09-09T09:59:37;13.0;;;12.0;;
53939;SDS011;39850;43.324;21.916;2022-09-09T10:04:23;13.0;;;12.0;;
53939;SDS011;39850;43.324;21.916;2022-09-09T10:09:28;13.0;;;12.0;;
53939;SDS011;39850;43.324;21.916;2022-09-09T10:14:39;13.0;;;12.0;;
53939;SDS011;39850;43.324;21.916;2022-09-09T10:20:39;14.0;;;12.0;;
53939;SDS011;39850;43.324;21.916;2022-09-09T10:26:40;13.0;;;12.0;;
53939;SDS011;39850;43.324;21.916;2022-09-09T10:32:40;13.0;;;12.0;;
53939;SDS011;39850;43.324;21.916;2022-09-09T11:10:38;12.0;;;10.0;;
53939;SDS011;39850;43.324;21.916;2022-09-09T11:15:41;12.0;;;10.0;;
53939;SDS011;39850;43.324;21.916;2022-09-09T11:20:23;12.0;;;10.0;;
53939;SDS011;39850;43.324;21.916;2022-09-09T11:25:21;12.0;;;10.0;;
53939;SDS011;39850;43.324;21.916;2022-09-09T11:30:22;12.0;;;10.0;;
53939;SDS011;39850;43.324;21.916;2022-09-09T11:35:53;12.0;;;10.0;;
53939;SDS011;39850;43.324;21.916;2022-09-09T11:40:42;12.0;;;10.0;;
53939;SDS011;39850;43.324;21.916;2022-09-09T11:45:29;12.0;;;10.0;;
53939;SDS011;39850;43.324;21.916;2022-09-09T11:50:32;11.0;;;9.0;;
53939;SDS011;39850;43.324;21.916;2022-09-09T11:55:31;11.0;;;9.0;;
53939;SDS011;39850;43.324;21.916;2022-09-09T12:31:01;12.0;;;8.0;;
53939;SDS011;39850;43.324;21.916;2022-09-09T12:35:58;12.0;;;8.0;;
53939;SDS011;39850;43.324;21.916;2022-09-09T12:40:36;12.0;;;8.0;;
53939;SDS011;39850;43.324;21.916;2022-09-09T12:45:27;12.0;;;8.0;;
53939;SDS011;39850;43.324;21.916;2022-09-09T12:50:28;12.0;;;8.0;;
53939;SDS011;39850;43.324;21.916;2022-09-09T12:55:28;12.0;;;8.0;;
53939;SDS011;39850;43.324;21.916;2022-09-09T13:00:24;12.0;;;8.0;;
53939;SDS011;39850;43.324;21.916;2022-09-09T13:05:23;12.0;;;8.0;;
53939;SDS011;39850;43.324;21.916;2022-09-09T13:10:25;12.0;;;9.0;;
53939;SDS011;39850;43.324;21.916;2022-09-09T13:15:30;12.0;;;9.0;;
53939;SDS011;39850;43.324;21.916;2022-09-09T13:49:38;11.0;;;8.0;;
53939;SDS011;39850;43.324;21.916;2022-09-09T13:54:21;11.0;;;8.0;;
53939;SDS011;39850;43.324;21.916;2022-09-09T13:58:57;10.0;;;8.0;;
53939;SDS011;39850;43.324;21.916;2022-09-09T14:03:34;10.0;;;8.0;;
53939;SDS011;39850;43.324;21.916;2022-09-09T14:08:26;11.0;;;8.0;;
53939;SDS011;39850;43.324;21.916;2022-09-09T14:13:03;11.0;;;8.0;;
53939;SDS011;39850;43.324;21.916;2022-09-09T14:17:40;10.0;;;8.0;;
53939;SDS011;39850;43.324;21.916;2022-09-09T14:22:17;10.0;;;8.0;;
53939;SDS011;39850;43.324;21.916;2022-09-09T14:26:56;11.0;;;9.0;;
53939;SDS011;39850;43.324;21.916;2022-09-09T14:31:33;11.0;;;9.0;;
53939;SDS011;39850;43.324;21.916;2022-09-09T14:36:11;11.0;;;9.0;;
53939;SDS011;39850;43.324;21.916;2022-09-09T15:08:50;10.0;;;8.0;;
53939;SDS011;39850;43.324;21.916;2022-09-09T15:13:28;10.0;;;8.0;;
53939;SDS011;39850;43.324;21.916;2022-09-09T15:18:06;10.0;;;8.0;;
53939;SDS011;39850;43.324;21.916;2022-09-09T15:22:43;10.0;;;8.0;;
53939;SDS011;39850;43.324;21.916;2022-09-09T15:27:20;10.0;;;8.0;;
53939;SDS011;39850;43.324;21.916;2022-09-09T15:31:58;10.0;;;8.0;;
53939;SDS011;39850;43.324;21.916;2022-09-09T15:36:40;10.0;;;8.0;;
53939;SDS011;39850;43.324;21.916;2022-09-09T15:41:24;10.0;;;8.0;;
53939;SDS011;39850;43.324;21.916;2022-09-09T15:46:32;10.0;;;8.0;;
53939;SDS011;39850;43.324;21.916;2022-09-09T15:51:13;10.0;;;8.0;;
53939;SDS011;39850;43.324;21.916;2022-09-09T15:55:55;10.0;;;8.0;;
53939;SDS011;39850;43.324;21.916;2022-09-09T16:28:29;10.0;;;8.0;;
53939;SDS011;39850;43.324;21.916;2022-09-09T16:33:05;10.0;;;8.0;;
53939;SDS011;39850;43.324;21.916;2022-09-09T16:37:42;10.0;;;8.0;;
53939;SDS011;39850;43.324;21.916;2022-09-09T16:42:18;10.0;;;8.0;;
53939;SDS011;39850;43.324;21.916;2022-09-09T16:46:55;10.0;;;8.0;;
53939;SDS011;39850;43.324;21.916;2022-09-09T16:51:40;11.0;;;8.0;;
53939;SDS011;39850;43.324;21.916;2022-09-09T16:56:26;11.0;;;8.0;;
53939;SDS011;39850;43.324;21.916;2022-09-09T17:01:05;11.0;;;8.0;;
53939;SDS011;39850;43.324;21.916;2022-09-09T17:05:42;11.0;;;8.0;;
53939;SDS011;39850;43.324;21.916;2022-09-09T17:10:19;11.0;;;8.0;;
53939;SDS011;39850;43.324;21.916;2022-09-09T17:14:56;11.0;;;8.0;;
53939;SDS011;39850;43.324;21.916;2022-09-09T17:51:52;19.0;;;20.0;;
53939;SDS011;39850;43.324;21.916;2022-09-09T17:56:34;19.0;;;20.0;;
53939;SDS011;39850;43.324;21.916;2022-09-09T18:01:24;18.0;;;18.0;;
53939;SDS011;39850;43.324;21.916;2022-09-09T18:06:18;18.0;;;18.0;;
53939;SDS011;39850;43.324;21.916;2022-09-09T18:11:06;18.0;;;16.0;;
53939;SDS011;39850;43.324;21.916;2022-09-09T18:15:45;18.0;;;16.0;;
53939;SDS011;39850;43.324;21.916;2022-09-09T18:20:22;16.0;;;16.0;;
53939;SDS011;39850;43.324;21.916;2022-09-09T18:24:59;16.0;;;16.0;;
53939;SDS011;39850;43.324;21.916;2022-09-09T18:29:36;15.0;;;15.0;;
53939;SDS011;39850;43.324;21.916;2022-09-09T18:34:20;15.0;;;15.0;;
53939;SDS011;39850;43.324;21.916;2022-09-09T19:11:28;19.0;;;16.0;;
53939;SDS011;39850;43.324;21.916;2022-09-09T19:16:11;19.0;;;16.0;;
53939;SDS011;39850;43.324;21.916;2022-09-09T19:20:49;19.0;;;16.0;;
53939;SDS011;39850;43.324;21.916;2022-09-09T19:25:26;19.0;;;16.0;;
53939;SDS011;39850;43.324;21.916;2022-09-09T19:30:07;19.0;;;16.0;;
53939;SDS011;39850;43.324;21.916;2022-09-09T19:34:44;19.0;;;16.0;;
53939;SDS011;39850;43.324;21.916;2022-09-09T19:39:21;18.0;;;15.0;;
53939;SDS011;39850;43.324;21.916;2022-09-09T19:44:07;18.0;;;15.0;;
53939;SDS011;39850;43.324;21.916;2022-09-09T19:48:49;17.0;;;14.0;;
53939;SDS011;39850;43.324;21.916;2022-09-09T19:53:26;17.0;;;14.0;;
53939;SDS011;39850;43.324;21.916;2022-09-09T20:30:48;14.0;;;12.0;;
53939;SDS011;39850;43.324;21.916;2022-09-09T20:35:27;14.0;;;12.0;;
53939;SDS011;39850;43.324;21.916;2022-09-09T20:40:07;16.0;;;14.0;;
53939;SDS011;39850;43.324;21.916;2022-09-09T20:44:46;16.0;;;14.0;;
53939;SDS011;39850;43.324;21.916;2022-09-09T20:49:23;17.0;;;15.0;;
53939;SDS011;39850;43.324;21.916;2022-09-09T20:54:08;17.0;;;15.0;;
53939;SDS011;39850;43.324;21.916;2022-09-09T20:58:55;20.0;;;19.0;;
53939;SDS011;39850;43.324;21.916;2022-09-09T21:03:35;20.0;;;19.0;;
53939;SDS011;39850;43.324;21.916;2022-09-09T21:08:12;20.0;;;19.0;;
53939;SDS011;39850;43.324;21.916;2022-09-09T21:12:49;24.0;;;23.0;;
53939;SDS011;39850;43.324;21.916;2022-09-09T21:17:26;24.0;;;23.0;;
53939;SDS011;39850;43.324;21.916;2022-09-09T21:50:03;13.0;;;12.0;;
53939;SDS011;39850;43.324;21.916;2022-09-09T21:54:40;13.0;;;12.0;;
53939;SDS011;39850;43.324;21.916;2022-09-09T21:59:17;13.0;;;12.0;;
53939;SDS011;39850;43.324;21.916;2022-09-09T22:03:53;13.0;;;12.0;;
53939;SDS011;39850;43.324;21.916;2022-09-09T22:08:30;13.0;;;12.0;;
53939;SDS011;39850;43.324;21.916;2022-09-09T22:13:08;13.0;;;11.0;;
53939;SDS011;39850;43.324;21.916;2022-09-09T22:17:44;13.0;;;11.0;;
53939;SDS011;39850;43.324;21.916;2022-09-09T22:22:21;13.0;;;10.0;;
53939;SDS011;39850;43.324;21.916;2022-09-09T22:26:58;13.0;;;10.0;;
53939;SDS011;39850;43.324;21.916;2022-09-09T22:31:35;13.0;;;10.0;;
53939;SDS011;39850;43.324;21.916;2022-09-09T22:36:12;13.0;;;10.0;;
53939;SDS011;39850;43.324;21.916;2022-09-09T23:13:14;11.0;;;10.0;;
53939;SDS011;39850;43.324;21.916;2022-09-09T23:17:51;11.0;;;10.0;;
53939;SDS011;39850;43.324;21.916;2022-09-09T23:22:29;11.0;;;10.0;;
53939;SDS011;39850;43.324;21.916;2022-09-09T23:27:07;11.0;;;10.0;;
53939;SDS011;39850;43.324;21.916;2022-09-09T23:31:46;11.0;;;10.0;;
53939;SDS011;39850;43.324;21.916;2022-09-09T23:36:27;11.0;;;10.0;;
53939;SDS011;39850;43.324;21.916;2022-09-09T23:41:15;12.0;;;10.0;;
53939;SDS011;39850;43.324;21.916;2022-09-09T23:45:56;12.0;;;10.0;;
53939;SDS011;39850;43.324;21.916;2022-09-09T23:50:33;12.0;;;10.0;;
53939;SDS011;39850;43.324;21.916;2022-09-09T23:55:10;12.0;;;10.0;;
